Terminal Aerodrome Forecast
Issued by NWS Sioux Falls, SD

Home | Current Version | Previous Version | Text Only | Print | Product List | Glossary Off
Versions: 1 2 3 4 5 6 7 8 9 10 11 12 13 14 15

000
FTUS43 KFSD 290953 AAA
TAFFSD
TAF AMD
KFSD 290953Z 2910/3006 31009KT P6SM OVC029
      TEMPO 2910/2913 OVC035
     FM291300 VRB03KT P6SM SCT040
     FM292000 18005KT P6SM SKC
     FM300400 16005KT P6SM BKN100=

USA.gov is the U.S. government's official web portal to all federal, state and local government web resources and services.